Time;durP1;ratioP1;P1;durP2;ratioP2;P2;SDS_P1;SDS_P2;PMS_P1;PMS_P2;Temp;Humidity;BMP_temperature;BMP_pressure;BME280_temperature;BME280_humidity;BME280_pressure;Samples;Min_cycle;Max_cycle;Signal;HPM_P1;HPM_P2
2022/12/07 00:00:48;;;;;;;;;45.00;36.25;;;;;5.97;74.35;101816.06;5098432;27;45317;-46
2022/12/07 00:03:14;;;;;;;;;49.50;37.75;;;;;5.94;73.79;101812.75;5098695;27;45629;-42
2022/12/07 00:05:39;;;;;;;;;46.75;38.00;;;;;5.98;73.80;101816.91;5098086;27;45429;-47
2022/12/07 00:08:05;;;;;;;;;53.00;41.50;;;;;5.98;73.68;101811.63;5098255;27;45169;-44
2022/12/07 00:10:32;;;;;;;;;52.50;39.50;;;;;5.98;73.97;101811.63;5098404;27;45272;-44
2022/12/07 00:12:58;;;;;;;;;57.75;39.50;;;;;5.96;73.71;101811.72;5098488;27;45362;-51
2022/12/07 00:15:23;;;;;;;;;52.00;44.25;;;;;5.97;73.63;101808.13;5098189;27;46166;-48
2022/12/07 00:17:48;;;;;;;;;56.00;42.25;;;;;6.00;73.62;101815.88;5097955;27;45346;-44
2022/12/07 00:20:13;;;;;;;;;60.75;42.75;;;;;5.98;73.78;101812.50;5098261;27;45388;-52
2022/12/07 00:22:39;;;;;;;;;56.25;40.50;;;;;5.97;73.62;101810.78;5098417;27;45438;-45
2022/12/07 00:25:04;;;;;;;;;62.00;40.00;;;;;5.96;73.94;101806.44;5098244;27;45411;-44
2022/12/07 00:27:30;;;;;;;;;56.75;43.75;;;;;5.97;74.22;101802.00;5097898;27;45369;-53
2022/12/07 00:29:55;;;;;;;;;49.25;37.25;;;;;5.96;73.84;101800.31;5098023;27;45408;-50
2022/12/07 00:32:20;;;;;;;;;66.75;41.75;;;;;5.93;73.84;101798.69;5098230;27;45455;-49
2022/12/07 00:34:45;;;;;;;;;56.50;36.25;;;;;5.88;73.72;101789.31;5097732;27;45569;-45
2022/12/07 00:37:12;;;;;;;;;32.75;29.00;;;;;5.94;73.94;101808.34;5098032;27;45273;-44
2022/12/07 00:39:37;;;;;;;;;67.25;46.00;;;;;5.90;74.45;101797.97;5096490;27;45296;-43
2022/12/07 00:42:03;;;;;;;;;60.75;45.75;;;;;5.95;74.74;101806.53;5097794;27;45647;-43
2022/12/07 00:44:28;;;;;;;;;54.00;44.25;;;;;5.95;74.62;101802.09;5097707;27;46249;-46
2022/12/07 00:46:54;;;;;;;;;60.00;43.50;;;;;5.97;74.30;101802.00;5097298;27;45428;-46
2022/12/07 00:49:19;;;;;;;;;59.50;43.75;;;;;6.00;73.98;101801.81;5097133;27;45949;-45
2022/12/07 00:51:47;;;;;;;;;67.00;42.50;;;;;6.03;73.97;101801.66;5097841;27;45173;-47
2022/12/07 00:54:12;;;;;;;;;55.25;43.25;;;;;6.03;74.20;101791.09;5113044;27;46257;-45
2022/12/07 00:56:38;;;;;;;;;50.75;42.00;;;;;6.04;74.12;101792.78;5097632;27;45393;-45
2022/12/07 00:59:04;;;;;;;;;57.25;45.50;;;;;6.02;74.27;101778.81;5097668;27;45756;-48
2022/12/07 01:01:33;;;;;;;;;57.00;40.50;;;;;6.08;73.89;101788.16;5097843;27;45440;-49
2022/12/07 01:04:00;;;;;;;;;53.00;41.50;;;;;6.09;73.87;101784.56;5097467;27;45503;-47
2022/12/07 01:06:26;;;;;;;;;57.50;44.00;;;;;6.11;73.97;101791.47;5097145;27;45357;-45
2022/12/07 01:08:51;;;;;;;;;52.50;40.00;;;;;6.10;73.73;101784.47;5097556;27;45300;-51
2022/12/07 01:11:20;;;;;;;;;40.25;31.75;;;;;6.12;73.87;101784.41;5097662;27;45462;-43
2022/12/07 01:13:45;;;;;;;;;51.25;36.00;;;;;6.11;73.81;101783.56;5097145;27;46220;-52
2022/12/07 01:16:13;;;;;;;;;52.75;40.25;;;;;6.15;73.68;101778.91;5097357;27;45294;-43
2022/12/07 01:18:40;;;;;;;;;55.25;40.75;;;;;6.12;72.87;101772.03;5097363;27;45290;-43
2022/12/07 01:21:14;;;;;;;;;44.75;42.00;;;;;6.14;73.10;101778.06;5097538;27;45457;-44
2022/12/07 01:23:40;;;;;;;;;50.50;35.00;;;;;6.17;72.97;101780.53;5097244;27;46439;-45
2022/12/07 01:26:10;;;;;;;;;50.50;40.50;;;;;6.18;73.20;101773.44;5097099;27;45332;-44
2022/12/07 01:28:36;;;;;;;;;56.00;40.75;;;;;6.17;72.79;101775.25;5097187;27;45371;-44
2022/12/07 01:31:05;;;;;;;;;63.00;45.75;;;;;6.17;72.91;101777.88;5097408;27;45168;-45
2022/12/07 01:33:36;;;;;;;;;51.50;43.50;;;;;6.18;72.52;101771.66;5097062;27;46074;-44
2022/12/07 01:36:02;;;;;;;;;59.00;42.50;;;;;6.18;72.67;101768.16;5096858;27;45355;-43
2022/12/07 01:38:30;;;;;;;;;54.50;42.50;;;;;6.12;72.78;101758.81;5096822;27;45369;-43
2022/12/07 01:40:56;;;;;;;;;55.00;31.25;;;;;6.16;72.59;101770.06;5097155;27;45341;-44
2022/12/07 01:43:24;;;;;;;;;51.75;39.00;;;;;6.12;72.72;101774.69;5095722;27;45405;-45
2022/12/07 01:45:49;;;;;;;;;45.00;41.00;;;;;6.12;72.99;101769.41;5096756;27;45451;-43
2022/12/07 01:48:21;;;;;;;;;58.25;39.50;;;;;6.05;72.48;101756.66;5096731;27;45287;-43
2022/12/07 01:50:50;;;;;;;;;45.50;36.50;;;;;6.08;73.12;101767.88;5096924;27;45443;-43
2022/12/07 01:53:17;;;;;;;;;51.50;41.00;;;;;6.04;72.56;101766.38;5096569;27;45466;-42
2022/12/07 01:55:47;;;;;;;;;56.50;41.50;;;;;6.04;73.08;101765.53;5096486;27;45164;-43
2022/12/07 01:58:14;;;;;;;;;43.75;41.50;;;;;6.03;72.84;101772.59;5096931;27;45305;-42
2022/12/07 02:00:41;;;;;;;;;57.25;40.50;;;;;6.03;73.05;101769.97;5097786;27;45256;-52
2022/12/07 02:03:15;;;;;;;;;55.00;43.75;;;;;6.00;72.72;101763.06;5099929;27;46187;-44
2022/12/07 02:05:41;;;;;;;;;42.75;39.25;;;;;5.92;72.88;101749.47;5100136;27;45306;-44
2022/12/07 02:08:07;;;;;;;;;42.00;39.00;;;;;5.98;72.47;101762.31;5100335;27;45447;-44
2022/12/07 02:10:33;;;;;;;;;64.75;43.25;;;;;5.97;72.65;101765.88;5100326;27;45388;-44
2022/12/07 02:13:05;;;;;;;;;60.50;40.50;;;;;5.94;73.00;101760.78;5099925;27;45223;-42
2022/12/07 02:16:08;;;;;;;;;42.75;32.25;;;;;5.91;72.55;101768.84;5100058;27;45705;-44
2022/12/07 02:18:49;;;;;;;;;50.75;38.25;;;;;5.90;72.67;101771.56;5100083;27;45375;-43
2022/12/07 02:21:39;;;;;;;;;52.75;41.50;;;;;5.88;72.51;101776.13;5100043;27;45517;-42
2022/12/07 02:24:22;;;;;;;;;49.50;43.50;;;;;5.83;72.15;101773.75;5099655;27;46307;-43
2022/12/07 02:27:06;;;;;;;;;46.75;39.75;;;;;5.81;72.26;101777.41;5099989;27;45352;-43
2022/12/07 02:29:39;;;;;;;;;54.25;43.75;;;;;5.78;72.59;101777.59;5099819;27;45440;-48
2022/12/07 02:32:39;;;;;;;;;62.25;45.25;;;;;5.74;72.22;101769.00;5100048;27;45445;-45
2022/12/07 02:35:15;;;;;;;;;51.50;44.25;;;;;5.69;72.26;101769.28;5099584;27;46111;-45
2022/12/07 02:37:53;;;;;;;;;55.75;45.75;;;;;5.66;72.22;101771.25;5099474;27;45397;-43
2022/12/07 02:40:25;;;;;;;;;53.00;39.75;;;;;5.62;72.14;101767.94;5099996;27;45157;-42
2022/12/07 02:42:59;;;;;;;;;66.75;48.50;;;;;5.44;72.18;101751.38;5099856;27;45385;-46
2022/12/07 02:45:29;;;;;;;;;58.75;44.50;;;;;5.48;72.66;101762.63;5099582;27;45314;-44
2022/12/07 02:47:58;;;;;;;;;59.50;45.25;;;;;5.51;72.25;101768.53;5099230;27;45378;-49
2022/12/07 02:50:24;;;;;;;;;54.00;43.50;;;;;5.48;72.09;101766.09;5099456;27;45514;-43
2022/12/07 02:52:49;;;;;;;;;56.75;41.75;;;;;5.44;72.48;101771.66;5099698;27;45451;-43
2022/12/07 02:55:19;;;;;;;;;62.50;44.75;;;;;5.41;72.78;101767.38;5099521;27;46045;-44
2022/12/07 02:58:14;;;;;;;;;52.25;42.00;;;;;5.38;72.59;101769.34;5099376;27;45385;-44
2022/12/07 03:01:00;;;;;;;;;59.50;44.75;;;;;5.35;72.26;101765.13;5099617;27;45383;-46
2022/12/07 03:03:27;;;;;;;;;57.25;43.00;;;;;5.37;72.68;101767.66;5099897;27;45325;-45
2022/12/07 03:06:10;;;;;;;;;50.00;43.00;;;;;5.34;72.54;101766.03;5098996;27;46550;-43
2022/12/07 03:08:56;;;;;;;;;54.00;42.75;;;;;5.35;72.92;101767.75;5099173;27;45335;-44
2022/12/07 03:11:49;;;;;;;;;61.75;43.50;;;;;5.37;72.96;101759.75;5098738;27;45420;-48
2022/12/07 03:14:23;;;;;;;;;47.00;41.25;;;;;5.37;72.92;101754.47;5099327;27;45379;-45
2022/12/07 03:17:16;;;;;;;;;50.75;38.25;;;;;5.38;72.63;101756.16;5099029;27;45329;-44
2022/12/07 03:19:44;;;;;;;;;67.25;43.00;;;;;5.25;72.76;101735.75;5056031;28;45350;-45
2022/12/07 03:22:13;;;;;;;;;39.75;37.00;;;;;5.36;72.86;101747.50;5055999;28;45435;-43
2022/12/07 03:24:53;;;;;;;;;45.75;39.50;;;;;5.36;72.65;101747.50;5056045;28;45530;-44
2022/12/07 03:27:22;;;;;;;;;55.25;45.25;;;;;5.35;72.78;101746.66;5056008;28;46142;-44
2022/12/07 03:29:58;;;;;;;;;46.25;38.50;;;;;5.37;72.62;101743.91;5056114;28;45510;-44
2022/12/07 03:32:31;;;;;;;;;49.00;37.25;;;;;5.22;72.77;101714.84;5055967;28;45458;-41
2022/12/07 03:35:03;;;;;;;;;43.50;34.25;;;;;5.34;72.75;101730.88;5056089;28;45445;-43
2022/12/07 03:37:39;;;;;;;;;53.25;39.00;;;;;5.37;72.62;101733.34;5055562;28;46123;-45
2022/12/07 03:40:53;;;;;;;;;47.00;41.25;;;;;5.36;72.65;101727.22;5038913;28;45382;-47
2022/12/07 03:43:19;;;;;;;;;51.00;40.50;;;;;5.35;72.99;101724.66;4976131;28;45431;-45
2022/12/07 03:45:53;;;;;;;;;50.50;39.25;;;;;5.36;73.24;101732.50;4976585;28;45438;-44
2022/12/07 03:48:27;;;;;;;;;55.25;41.00;;;;;5.37;72.65;101722.81;4975987;28;46332;-42
2022/12/07 03:50:54;;;;;;;;;54.25;35.00;;;;;5.37;72.43;101720.16;4976386;28;45377;-44
2022/12/07 03:54:09;;;;;;;;;43.50;38.25;;;;;5.36;73.06;101727.22;4977264;28;45441;-45
2022/12/07 03:56:35;;;;;;;;;48.25;32.00;;;;;5.33;72.51;101714.22;4956966;28;45383;-45
2022/12/07 03:59:01;;;;;;;;;45.50;37.50;;;;;5.35;72.85;101724.66;4957382;28;45516;-45
2022/12/07 04:01:27;;;;;;;;;39.00;33.25;;;;;5.24;72.58;101706.84;4957201;28;45505;-45
2022/12/07 04:03:52;;;;;;;;;46.25;35.00;;;;;5.34;72.87;101722.97;4956663;28;45425;-44
2022/12/07 04:06:18;;;;;;;;;43.00;35.50;;;;;5.31;72.58;101724.03;4956493;28;45485;-45
2022/12/07 04:08:43;;;;;;;;;45.25;28.75;;;;;5.32;73.16;101728.34;4957152;28;46275;-43
2022/12/07 04:11:08;;;;;;;;;44.50;35.25;;;;;5.33;72.55;101729.19;4957276;28;45472;-43
2022/12/07 04:14:18;;;;;;;;;34.75;30.75;;;;;5.31;72.65;101726.66;4957172;28;45548;-43
2022/12/07 04:16:20;;;;;;;;;43.25;33.75;;;;;5.30;73.16;101721.44;4956601;28;45499;-43
2022/12/07 04:18:45;;;;;;;;;40.50;34.25;;;;;5.31;73.12;101729.28;4964292;28;45446;-43
2022/12/07 04:21:11;;;;;;;;;35.50;29.50;;;;;5.31;72.83;101723.13;5035028;28;45467;-43
2022/12/07 04:23:36;;;;;;;;;39.00;27.00;;;;;5.33;72.63;101722.13;5034122;28;45443;-45
2022/12/07 04:26:01;;;;;;;;;48.25;33.50;;;;;5.34;72.65;101717.69;5035153;28;45553;-43
2022/12/07 04:28:27;;;;;;;;;41.00;32.25;;;;;5.34;72.71;101712.41;5034920;28;46034;-43
2022/12/07 04:30:52;;;;;;;;;33.75;27.25;;;;;5.35;72.54;101719.38;5035024;28;45309;-44
2022/12/07 04:33:17;;;;;;;;;39.75;31.00;;;;;5.36;73.27;101713.19;5070462;27;45322;-44
2022/12/07 04:35:43;;;;;;;;;33.75;26.25;;;;;5.35;72.91;101717.63;5098125;27;45529;-43
2022/12/07 04:38:08;;;;;;;;;37.00;27.50;;;;;5.29;73.07;101711.84;5097575;27;46366;-42
2022/12/07 04:40:34;;;;;;;;;38.25;24.75;;;;;5.37;73.13;101722.81;5097825;27;45345;-44
2022/12/07 04:43:00;;;;;;;;;30.25;29.00;;;;;5.39;72.31;101726.19;5097982;27;45282;-42
2022/12/07 04:45:25;;;;;;;;;37.25;31.50;;;;;5.40;72.35;101727.91;5098073;27;45391;-47
2022/12/07 04:47:50;;;;;;;;;38.25;32.75;;;;;5.41;72.78;101719.91;5097282;27;46210;-44
2022/12/07 04:50:16;;;;;;;;;40.50;29.75;;;;;5.39;72.30;101724.41;5097735;27;45340;-43
2022/12/07 04:52:41;;;;;;;;;32.75;28.50;;;;;5.38;72.63;101720.06;5097543;27;45321;-42
2022/12/07 04:55:07;;;;;;;;;35.00;31.50;;;;;5.38;72.61;101719.22;5098013;27;45498;-45
2022/12/07 04:57:32;;;;;;;;;40.25;31.75;;;;;5.39;72.44;101713.84;5096425;27;46169;-44
2022/12/07 04:59:58;;;;;;;;;38.00;29.50;;;;;5.41;72.62;101719.06;5097478;27;45248;-43
2022/12/07 05:02:23;;;;;;;;;36.50;27.75;;;;;5.41;72.10;101722.53;5097554;27;45396;-43
2022/12/07 05:04:48;;;;;;;;;35.75;26.50;;;;;5.37;71.95;101721.00;5097987;27;45450;-44
2022/12/07 05:07:14;;;;;;;;;29.75;26.25;;;;;5.41;72.59;101724.31;5097145;27;46019;-43
2022/12/07 05:09:39;;;;;;;;;25.50;24.50;;;;;5.39;72.24;101721.75;5097595;27;45437;-44
2022/12/07 05:12:04;;;;;;;;;30.00;20.50;;;;;5.37;71.97;101721.00;5097457;27;45331;-44
2022/12/07 05:14:30;;;;;;;;;31.50;24.75;;;;;5.32;72.82;101698.47;5097446;27;45327;-44
2022/12/07 05:16:55;;;;;;;;;36.75;29.50;;;;;5.38;72.39;101714.78;5097240;27;46470;-44
2022/12/07 05:19:20;;;;;;;;;38.00;24.25;;;;;5.38;72.89;101717.44;5097156;27;45357;-43
2022/12/07 05:21:46;;;;;;;;;29.25;22.75;;;;;5.39;72.35;101719.13;5097422;27;45374;-42
2022/12/07 05:24:13;;;;;;;;;35.25;23.50;;;;;5.45;72.67;101728.50;5097480;27;45416;-47
2022/12/07 05:26:39;;;;;;;;;26.50;24.75;;;;;5.46;72.21;101724.91;5097140;27;45399;-44
2022/12/07 05:29:05;;;;;;;;;23.50;20.50;;;;;5.40;72.54;101717.34;5097353;27;45268;-43
2022/12/07 05:31:31;;;;;;;;;29.50;16.25;;;;;5.48;72.22;101730.97;5097239;27;45223;-43
2022/12/07 05:33:56;;;;;;;;;26.50;22.75;;;;;5.44;71.94;101725.00;5097233;27;45251;-44
2022/12/07 05:36:22;;;;;;;;;38.75;28.75;;;;;5.49;72.36;101722.09;5100313;27;45410;-43
2022/12/07 05:38:47;;;;;;;;;33.50;25.75;;;;;5.50;72.30;101727.28;5100714;27;45448;-44
2022/12/07 05:44:00;;;;;;;;;35.25;26.50;;;;;5.51;72.56;101725.47;5100973;27;45459;-43
2022/12/07 05:46:26;;;;;;;;;33.50;26.75;;;;;5.43;72.92;101717.16;5100267;27;45449;-44
2022/12/07 05:48:52;;;;;;;;;30.50;25.50;;;;;5.56;72.84;101727.84;5100428;27;45573;-46
2022/12/07 05:51:18;;;;;;;;;35.75;30.50;;;;;5.57;72.76;101724.28;5100487;27;45313;-44
2022/12/07 05:53:44;;;;;;;;;26.25;24.50;;;;;5.59;72.78;101717.97;5100620;27;45242;-43
2022/12/07 05:56:09;;;;;;;;;29.50;26.25;;;;;5.55;73.17;101705.03;5100440;27;46008;-44
2022/12/07 06:01:18;;;;;;;;;31.50;22.25;;;;;5.66;73.29;101715.81;5100460;27;45207;-44
2022/12/07 06:03:45;;;;;;;;;33.00;26.75;;;;;5.67;73.00;101714.88;5100721;27;45408;-45
2022/12/07 06:06:10;;;;;;;;;29.25;23.00;;;;;5.67;73.27;101709.59;5099956;27;47304;-43
2022/12/07 06:08:36;;;;;;;;;32.25;23.75;;;;;5.67;73.07;101715.72;5100236;27;45323;-43
2022/12/07 06:13:45;;;;;;;;;33.25;26.50;;;;;5.65;72.59;101714.97;5100334;27;45439;-44
2022/12/07 06:16:10;;;;;;;;;34.25;29.00;;;;;5.67;72.87;101720.16;5099940;27;46274;-46
2022/12/07 06:18:35;;;;;;;;;29.00;26.75;;;;;5.66;72.96;101710.53;5100168;27;45334;-46
2022/12/07 06:21:01;;;;;;;;;33.25;24.25;;;;;5.66;73.37;101711.38;5100109;27;45376;-45
2022/12/07 06:23:26;;;;;;;;;32.25;24.25;;;;;5.62;72.78;101707.22;5100429;27;45135;-48
2022/12/07 06:25:51;;;;;;;;;36.25;26.50;;;;;5.59;72.99;101712.69;5099907;27;45242;-47
2022/12/07 06:28:17;;;;;;;;;33.00;25.25;;;;;5.58;72.90;101702.22;5099809;27;45149;-44
2022/12/07 06:30:42;;;;;;;;;32.75;29.00;;;;;5.53;73.25;101699.00;5100055;27;45501;-44
2022/12/07 06:33:07;;;;;;;;;29.25;19.00;;;;;5.59;73.35;101712.69;5099930;27;45424;-43
2022/12/07 06:35:33;;;;;;;;;22.75;17.00;;;;;5.59;73.40;101717.09;5099577;27;46106;-44
2022/12/07 06:37:59;;;;;;;;;28.25;24.00;;;;;5.55;73.17;101713.78;5099653;27;45406;-43
2022/12/07 06:40:24;;;;;;;;;35.00;23.50;;;;;5.61;73.75;101720.53;5099753;27;45812;-45
2022/12/07 06:42:49;;;;;;;;;38.00;28.50;;;;;5.61;73.20;101726.66;5099846;27;45354;-44
2022/12/07 06:45:15;;;;;;;;;29.75;21.50;;;;;5.62;73.30;101720.44;5099577;27;45659;-45
2022/12/07 06:47:40;;;;;;;;;28.50;24.25;;;;;5.64;73.69;101730.88;5098500;27;45435;-45
2022/12/07 06:50:07;;;;;;;;;33.50;25.25;;;;;5.57;73.53;101711.09;5099575;27;45440;-43
2022/12/07 06:52:33;;;;;;;;;36.50;29.50;;;;;5.68;73.95;101727.97;5099447;27;45442;-44
2022/12/07 06:54:59;;;;;;;;;20.00;19.00;;;;;5.71;73.47;101726.94;5099349;27;46554;-45
2022/12/07 06:57:24;;;;;;;;;30.75;27.75;;;;;5.72;72.95;101720.72;5099302;27;45394;-46
2022/12/07 06:59:49;;;;;;;;;30.50;24.50;;;;;5.73;73.05;101723.28;5099510;27;45345;-43
2022/12/07 07:02:15;;;;;;;;;32.75;27.00;;;;;5.74;73.40;101727.63;5099569;27;45392;-42
2022/12/07 07:04:40;;;;;;;;;42.75;28.50;;;;;5.74;73.48;101727.63;5099225;27;46010;-45
2022/12/07 07:07:05;;;;;;;;;33.00;23.75;;;;;5.75;73.59;101724.03;5099284;27;45306;-56
2022/12/07 07:09:31;;;;;;;;;28.50;22.25;;;;;5.77;73.31;101723.94;5099509;27;45409;-54
2022/12/07 07:11:56;;;;;;;;;32.75;26.50;;;;;5.76;72.86;101719.59;5099679;27;45317;-46
2022/12/07 07:14:21;;;;;;;;;40.00;29.50;;;;;5.78;72.94;101723.00;5098951;27;45403;-44
2022/12/07 07:16:47;;;;;;;;;28.25;26.00;;;;;5.79;72.98;101726.50;5099208;27;45295;-43
2022/12/07 07:19:12;;;;;;;;;30.00;24.50;;;;;5.73;73.03;101714.50;5099296;27;45506;-42
2022/12/07 07:21:37;;;;;;;;;37.75;22.00;;;;;5.76;72.81;101722.22;5099185;27;45285;-43
2022/12/07 07:24:03;;;;;;;;;26.00;21.25;;;;;5.76;73.04;101720.44;5099048;27;45719;-53
2022/12/07 07:26:28;;;;;;;;;36.50;23.75;;;;;5.78;72.91;101723.00;5098453;27;45456;-51
2022/12/07 07:28:54;;;;;;;;;31.75;26.25;;;;;5.78;72.33;101717.72;5099111;27;45419;-53
2022/12/07 07:31:19;;;;;;;;;36.00;27.50;;;;;5.78;73.06;101728.28;5099135;27;45363;-45
2022/12/07 07:33:47;;;;;;;;;32.00;24.50;;;;;5.76;73.05;101725.72;5098604;27;46093;-50
2022/12/07 07:36:13;;;;;;;;;19.00;16.00;;;;;5.77;73.20;101731.84;5099074;27;45451;-55
2022/12/07 07:38:38;;;;;;;;;31.50;25.75;;;;;5.79;73.14;101729.13;5098614;27;45252;-44
2022/12/07 07:41:04;;;;;;;;;24.50;23.00;;;;;5.78;72.94;101727.44;5099108;27;45365;-44
2022/12/07 07:43:29;;;;;;;;;32.00;26.00;;;;;5.81;73.43;101730.72;5098785;27;45436;-44
2022/12/07 07:45:55;;;;;;;;;29.75;21.75;;;;;5.82;73.33;101724.53;5098486;27;45397;-50
2022/12/07 07:48:22;;;;;;;;;31.50;27.25;;;;;5.85;73.18;101724.31;5098616;27;45265;-48
2022/12/07 07:50:47;;;;;;;;;24.25;22.25;;;;;5.81;73.12;101714.03;5098798;27;45291;-44
2022/12/07 07:53:13;;;;;;;;;22.50;22.50;;;;;5.89;73.19;101728.47;5098155;27;46019;-43
2022/12/07 07:55:38;;;;;;;;;26.00;21.75;;;;;5.92;72.82;101728.34;5098617;27;45436;-45
2022/12/07 07:58:03;;;;;;;;;31.50;24.75;;;;;5.92;72.97;101727.47;5098414;27;45377;-45
2022/12/07 08:00:29;;;;;;;;;26.50;26.50;;;;;5.94;73.49;101730.88;5098860;27;45319;-44
2022/12/07 08:02:54;;;;;;;;;23.50;21.00;;;;;5.93;73.01;101721.25;5098278;27;46097;-49
2022/12/07 08:05:20;;;;;;;;;25.25;18.00;;;;;5.98;72.48;101727.97;5098289;27;45337;-45
2022/12/07 08:07:45;;;;;;;;;36.25;26.75;;;;;6.01;72.39;101729.56;5098404;27;45466;-42
2022/12/07 08:10:13;;;;;;;;;33.75;24.50;;;;;6.03;72.57;101732.97;5098470;27;45305;-47
2022/12/07 08:13:10;;;;;;;;;29.00;24.25;;;;;6.03;72.81;101732.97;5098188;27;46022;-48
2022/12/07 08:15:30;;;;;;;;;23.25;22.75;;;;;6.07;72.61;101733.63;5098192;27;45314;-51
2022/12/07 08:17:55;;;;;;;;;28.50;23.50;;;;;6.08;71.97;101735.34;5098396;27;45344;-48
2022/12/07 08:20:21;;;;;;;;;31.75;24.50;;;;;6.09;72.33;101737.88;5098360;27;45412;-53
2022/12/07 08:22:46;;;;;;;;;34.50;26.25;;;;;6.10;71.94;101739.56;5097839;27;46116;-53
2022/12/07 08:25:12;;;;;;;;;31.00;24.50;;;;;6.10;72.24;101736.91;5097991;27;45443;-50
2022/12/07 08:27:37;;;;;;;;;28.50;24.50;;;;;6.11;72.01;101736.00;5098202;27;45354;-49
2022/12/07 08:30:03;;;;;;;;;34.50;22.25;;;;;6.12;72.10;101745.63;5096734;27;45422;-50
2022/12/07 08:32:28;;;;;;;;;38.00;25.75;;;;;6.12;72.00;101744.78;5097704;27;46128;-46
2022/12/07 08:34:53;;;;;;;;;31.25;25.75;;;;;6.14;71.92;101746.38;5098238;27;45346;-47
2022/12/07 08:37:19;;;;;;;;;30.25;20.75;;;;;6.16;72.01;101755.06;5097877;27;45348;-47
2022/12/07 08:39:44;;;;;;;;;31.00;22.75;;;;;6.15;71.63;101741.94;5098135;27;45443;-49
2022/12/07 08:42:09;;;;;;;;;35.50;19.75;;;;;6.16;71.98;101747.13;5097679;27;46025;-47
2022/12/07 08:44:35;;;;;;;;;35.25;28.50;;;;;6.18;71.94;101747.03;5096162;27;45326;-51
2022/12/07 08:47:05;;;;;;;;;34.50;27.75;;;;;6.20;71.34;101756.56;5097681;27;45333;-52
2022/12/07 08:49:39;;;;;;;;;31.75;26.50;;;;;6.19;71.39;101759.28;5097874;27;45529;-49
2022/12/07 08:52:05;;;;;;;;;33.25;22.00;;;;;6.24;71.80;101754.59;5096723;27;47265;-52
2022/12/07 08:54:35;;;;;;;;;39.75;27.25;;;;;6.25;71.42;101757.13;5094734;27;45471;-53
2022/12/07 08:57:00;;;;;;;;;38.00;26.25;;;;;6.28;71.77;101752.59;5094956;27;45701;-51
2022/12/07 08:59:27;;;;;;;;;30.75;26.00;;;;;6.27;71.98;101757.03;5094294;27;45668;-47
2022/12/07 09:01:52;;;;;;;;;30.25;28.50;;;;;6.27;71.78;101748.25;5094908;27;46311;-54
2022/12/07 09:04:18;;;;;;;;;37.50;26.00;;;;;6.34;71.37;101752.22;5094696;27;45441;-49
2022/12/07 09:06:43;;;;;;;;;34.75;29.00;;;;;6.37;71.75;101747.59;5094969;27;45646;-49
2022/12/07 09:09:11;;;;;;;;;36.75;29.00;;;;;6.40;71.71;101746.56;5095965;27;45481;-50
2022/12/07 09:11:36;;;;;;;;;35.50;30.75;;;;;6.40;71.67;101743.91;5101471;27;46871;-48
2022/12/07 09:14:02;;;;;;;;;24.25;22.50;;;;;6.48;71.37;101749.56;5117258;27;45375;-52
2022/12/07 09:16:28;;;;;;;;;31.50;25.75;;;;;6.39;71.58;101735.13;5101346;27;45734;-49
2022/12/07 09:18:53;;;;;;;;;34.25;25.25;;;;;6.54;71.02;101751.84;5101688;27;45452;-50
2022/12/07 09:21:18;;;;;;;;;32.00;26.75;;;;;6.49;70.89;101738.91;5100802;27;45476;-48
2022/12/07 09:23:44;;;;;;;;;31.00;24.50;;;;;6.55;70.83;101742.97;5101021;27;45382;-49
2022/12/07 09:26:09;;;;;;;;;24.50;16.00;;;;;6.59;70.89;101746.25;5101614;27;45489;-49
2022/12/07 09:28:35;;;;;;;;;33.25;29.75;;;;;6.60;70.50;101750.59;5101534;27;45482;-47
2022/12/07 09:31:02;;;;;;;;;29.50;24.75;;;;;6.60;70.94;101759.38;5101288;27;45454;-48
2022/12/07 09:33:27;;;;;;;;;33.00;23.25;;;;;6.61;70.75;101754.94;5101005;27;45406;-47
2022/12/07 09:35:53;;;;;;;;;38.50;24.50;;;;;6.63;70.98;101745.97;5100102;27;45459;-47
2022/12/07 09:38:19;;;;;;;;;26.25;22.50;;;;;6.66;70.90;101753.72;5100114;27;45363;-48
2022/12/07 09:40:46;;;;;;;;;35.25;29.50;;;;;6.70;70.58;101755.22;5101143;27;46248;-49
2022/12/07 09:43:21;;;;;;;;;37.00;28.00;;;;;6.71;70.96;101749.00;5100838;27;45463;-47
2022/12/07 09:45:49;;;;;;;;;29.25;22.50;;;;;7.15;70.80;101749.72;5101105;27;45472;-51
2022/12/07 09:48:21;;;;;;;;;31.25;24.00;;;;;7.94;68.83;101743.53;5101050;27;45374;-48
2022/12/07 09:50:49;;;;;;;;;28.50;22.00;;;;;8.49;67.20;101737.91;5100693;27;45502;-49
2022/12/07 09:53:25;;;;;;;;;32.00;25.50;;;;;9.00;66.64;101736.94;5100668;27;46350;-50
2022/12/07 09:55:52;;;;;;;;;30.25;22.75;;;;;9.44;64.92;101732.81;5099052;27;45504;-50
2022/12/07 09:58:22;;;;;;;;;34.50;26.50;;;;;9.87;64.47;101730.38;5100943;27;46382;-48
2022/12/07 10:00:50;;;;;;;;;26.75;23.25;;;;;10.27;63.27;101718.47;5100567;27;46097;-50
2022/12/07 10:03:16;;;;;;;;;20.50;18.00;;;;;10.27;62.23;101721.13;5100745;27;45429;-47
2022/12/07 10:05:48;;;;;;;;;26.75;20.50;;;;;9.97;62.31;101704.78;5101075;27;46027;-53
2022/12/07 10:08:15;;;;;;;;;31.50;26.25;;;;;9.85;62.44;101720.81;5100923;27;45389;-51
2022/12/07 10:10:41;;;;;;;;;28.75;22.00;;;;;10.22;62.42;101722.31;5098173;27;46700;-49
2022/12/07 10:13:12;;;;;;;;;35.25;23.75;;;;;10.66;61.83;101707.34;5100503;27;45246;-50
2022/12/07 10:15:44;;;;;;;;;20.25;20.25;;;;;11.08;61.31;101712.81;5100808;27;45565;-47
2022/12/07 10:18:43;;;;;;;;;26.25;20.50;;;;;11.53;60.02;101712.59;5100826;27;45504;-50
2022/12/07 10:21:16;;;;;;;;;24.75;15.00;;;;;11.62;59.18;101706.47;5014338;28;46395;-48
2022/12/07 10:24:00;;;;;;;;;28.75;24.25;;;;;11.63;58.47;101713.53;5013788;28;45663;-47
2022/12/07 10:26:28;;;;;;;;;30.33;22.33;;;;;11.27;59.66;101708.59;5013393;28;45542;-47
2022/12/07 10:28:54;;;;;;;;;29.00;25.00;;;;;11.23;59.33;101708.00;5013920;28;45485;-49
2022/12/07 10:31:22;;;;;;;;;26.00;21.67;;;;;10.98;59.81;101701.19;5013724;28;46401;-45
2022/12/07 10:33:50;;;;;;;;;28.00;22.00;;;;;10.72;60.53;101680.22;5013773;28;45418;-49
2022/12/07 10:36:26;;;;;;;;;30.00;24.00;;;;;10.64;60.81;101692.47;5013908;28;45534;-53
2022/12/07 10:39:14;;;;;;;;;32.50;26.00;;;;;10.49;61.13;101691.84;5013949;28;45622;-49
2022/12/07 10:42:00;;;;;;;;;26.50;22.25;;;;;10.31;61.61;101691.53;5013821;28;45600;-48
2022/12/07 10:44:35;;;;;;;;;28.75;25.75;;;;;10.26;61.80;101684.88;5013141;28;45457;-49
2022/12/07 10:47:15;;;;;;;;;26.00;23.67;;;;;10.18;62.07;101677.47;5013815;28;45483;-49
2022/12/07 10:49:52;;;;;;;;;28.25;23.75;;;;;10.09;62.58;101671.06;5013827;28;45576;-55
2022/12/07 10:52:48;;;;;;;;;20.50;20.50;;;;;10.41;62.60;101673.03;5013230;28;46105;-56
2022/12/07 10:55:32;;;;;;;;;34.50;22.25;;;;;10.98;61.55;101663.94;5013259;28;45555;-53
2022/12/07 10:58:31;;;;;;;;;24.33;20.67;;;;;11.21;60.45;101659.38;5071511;27;46179;-54
2022/12/07 11:01:18;;;;;;;;;33.75;20.25;;;;;11.15;59.57;101630.56;5096571;27;45436;-56
2022/12/07 11:04:01;;;;;;;;;30.00;23.67;;;;;11.59;58.89;101647.28;5096691;27;46141;-55
2022/12/07 11:06:36;;;;;;;;;18.67;18.33;;;;;11.21;59.09;101630.06;5096586;27;45629;-61
2022/12/07 11:09:32;;;;;;;;;25.00;22.67;;;;;11.36;59.18;101650.06;5096629;27;45424;-58
2022/12/07 11:12:17;;;;;;;;;33.25;25.50;;;;;11.22;59.35;101637.91;5096491;27;45430;-59
2022/12/07 11:15:06;;;;;;;;;26.67;20.00;;;;;11.47;59.16;101642.03;5095759;27;47054;-57
2022/12/07 11:18:09;;;;;;;;;25.67;18.00;;;;;11.23;59.11;101631.63;5096043;27;45572;-48
2022/12/07 11:20:50;;;;;;;;;25.00;20.00;;;;;11.22;59.00;101632.59;5097129;27;45398;-52
2022/12/07 11:23:39;;;;;;;;;22.00;19.00;;;;;11.24;59.23;101627.97;5099080;27;45531;-49
2022/12/07 11:26:18;;;;;;;;;28.00;19.00;;;;;11.78;58.40;101626.06;5098975;27;45470;-51
2022/12/07 11:29:17;;;;;;;;;24.67;21.00;;;;;12.68;57.18;101614.53;5099028;27;45340;-49
2022/12/07 11:31:48;;;;;;;;;27.33;18.00;;;;;13.12;54.92;101605.13;5099043;27;45164;-52
2022/12/07 11:34:28;;;;;;;;;23.33;21.00;;;;;13.35;53.93;101597.66;5098855;27;45385;-52
2022/12/07 11:36:55;;;;;;;;;21.00;21.00;;;;;13.33;53.73;101605.00;5098912;27;46177;-50